sensor_id;sensor_type;location;lat;lon;timestamp;temperature;humidity
28374;DHT22;15616;40.148;-102.718;2022-11-15T00:00:49;21.20;50.10
28374;DHT22;15616;40.148;-102.718;2022-11-15T00:03:16;21.20;50.10
28374;DHT22;15616;40.148;-102.718;2022-11-15T00:05:43;21.20;50.10
28374;DHT22;15616;40.148;-102.718;2022-11-15T00:08:09;21.20;50.10
28374;DHT22;15616;40.148;-102.718;2022-11-15T00:10:36;21.20;50.20
28374;DHT22;15616;40.148;-102.718;2022-11-15T00:13:12;21.20;50.20
28374;DHT22;15616;40.148;-102.718;2022-11-15T00:15:40;21.20;50.10
28374;DHT22;15616;40.148;-102.718;2022-11-15T00:18:11;21.20;50.20
28374;DHT22;15616;40.148;-102.718;2022-11-15T00:20:38;21.20;50.20
28374;DHT22;15616;40.148;-102.718;2022-11-15T00:23:04;21.20;50.20
28374;DHT22;15616;40.148;-102.718;2022-11-15T00:25:31;21.20;50.20
28374;DHT22;15616;40.148;-102.718;2022-11-15T00:27:57;21.20;50.20
28374;DHT22;15616;40.148;-102.718;2022-11-15T00:30:24;21.20;50.20
28374;DHT22;15616;40.148;-102.718;2022-11-15T00:32:50;21.20;50.20
28374;DHT22;15616;40.148;-102.718;2022-11-15T00:35:16;21.20;50.20
28374;DHT22;15616;40.148;-102.718;2022-11-15T00:37:42;21.20;50.20
28374;DHT22;15616;40.148;-102.718;2022-11-15T00:40:09;21.20;50.20
28374;DHT22;15616;40.148;-102.718;2022-11-15T00:42:35;21.20;50.20
28374;DHT22;15616;40.148;-102.718;2022-11-15T00:45:01;21.20;50.20
28374;DHT22;15616;40.148;-102.718;2022-11-15T00:47:27;21.20;50.30
28374;DHT22;15616;40.148;-102.718;2022-11-15T00:49:53;21.20;50.30
28374;DHT22;15616;40.148;-102.718;2022-11-15T00:52:19;21.20;50.30
28374;DHT22;15616;40.148;-102.718;2022-11-15T00:54:45;21.20;50.30
28374;DHT22;15616;40.148;-102.718;2022-11-15T00:57:10;21.20;50.20
28374;DHT22;15616;40.148;-102.718;2022-11-15T00:59:36;21.20;50.30
28374;DHT22;15616;40.148;-102.718;2022-11-15T01:02:02;21.20;50.30
28374;DHT22;15616;40.148;-102.718;2022-11-15T01:04:28;21.20;50.30
28374;DHT22;15616;40.148;-102.718;2022-11-15T01:06:54;21.20;50.30
28374;DHT22;15616;40.148;-102.718;2022-11-15T01:09:20;21.20;50.30
28374;DHT22;15616;40.148;-102.718;2022-11-15T01:11:46;21.10;50.30
28374;DHT22;15616;40.148;-102.718;2022-11-15T01:14:11;21.20;50.30
28374;DHT22;15616;40.148;-102.718;2022-11-15T01:16:37;21.20;50.40
28374;DHT22;15616;40.148;-102.718;2022-11-15T01:19:03;21.20;50.40
28374;DHT22;15616;40.148;-102.718;2022-11-15T01:21:29;21.10;50.30
28374;DHT22;15616;40.148;-102.718;2022-11-15T01:23:56;21.10;50.40
28374;DHT22;15616;40.148;-102.718;2022-11-15T01:26:24;21.20;50.40
28374;DHT22;15616;40.148;-102.718;2022-11-15T01:28:50;21.20;50.40
28374;DHT22;15616;40.148;-102.718;2022-11-15T01:31:18;21.10;50.40
28374;DHT22;15616;40.148;-102.718;2022-11-15T01:33:45;21.20;50.40
28374;DHT22;15616;40.148;-102.718;2022-11-15T01:36:13;21.20;50.40
28374;DHT22;15616;40.148;-102.718;2022-11-15T01:38:39;21.10;50.40
28374;DHT22;15616;40.148;-102.718;2022-11-15T01:41:05;21.10;50.40
28374;DHT22;15616;40.148;-102.718;2022-11-15T01:43:36;21.10;50.40
28374;DHT22;15616;40.148;-102.718;2022-11-15T01:46:09;21.20;50.40
28374;DHT22;15616;40.148;-102.718;2022-11-15T01:48:38;21.20;50.40
28374;DHT22;15616;40.148;-102.718;2022-11-15T01:51:09;21.10;50.40
28374;DHT22;15616;40.148;-102.718;2022-11-15T01:53:38;21.20;50.40
28374;DHT22;15616;40.148;-102.718;2022-11-15T01:56:08;21.20;50.40
28374;DHT22;15616;40.148;-102.718;2022-11-15T01:58:35;21.20;50.40
28374;DHT22;15616;40.148;-102.718;2022-11-15T02:01:02;21.20;50.50
28374;DHT22;15616;40.148;-102.718;2022-11-15T02:03:39;21.20;50.50
28374;DHT22;15616;40.148;-102.718;2022-11-15T02:06:05;21.20;50.50
28374;DHT22;15616;40.148;-102.718;2022-11-15T02:08:31;21.20;50.50
28374;DHT22;15616;40.148;-102.718;2022-11-15T02:10:57;21.20;50.50
28374;DHT22;15616;40.148;-102.718;2022-11-15T02:13:23;21.10;50.50
28374;DHT22;15616;40.148;-102.718;2022-11-15T02:15:57;21.20;50.50
28374;DHT22;15616;40.148;-102.718;2022-11-15T02:18:31;21.20;50.50
28374;DHT22;15616;40.148;-102.718;2022-11-15T02:21:22;21.20;50.50
28374;DHT22;15616;40.148;-102.718;2022-11-15T02:30:13;21.20;50.50
28374;DHT22;15616;40.148;-102.718;2022-11-15T02:35:43;21.20;50.70
28374;DHT22;15616;40.148;-102.718;2022-11-15T02:38:27;21.20;50.50
28374;DHT22;15616;40.148;-102.718;2022-11-15T02:41:04;21.20;50.60
28374;DHT22;15616;40.148;-102.718;2022-11-15T02:49:17;21.20;50.60
28374;DHT22;15616;40.148;-102.718;2022-11-15T02:51:46;21.10;50.60
28374;DHT22;15616;40.148;-102.718;2022-11-15T02:54:22;21.10;50.60
28374;DHT22;15616;40.148;-102.718;2022-11-15T02:56:50;21.20;50.60
28374;DHT22;15616;40.148;-102.718;2022-11-15T02:59:29;21.20;50.60
28374;DHT22;15616;40.148;-102.718;2022-11-15T03:05:22;21.20;50.50
28374;DHT22;15616;40.148;-102.718;2022-11-15T03:08:10;21.20;50.60
28374;DHT22;15616;40.148;-102.718;2022-11-15T03:13:27;21.20;50.70
28374;DHT22;15616;40.148;-102.718;2022-11-15T03:16:21;21.10;50.60
28374;DHT22;15616;40.148;-102.718;2022-11-15T03:18:55;21.20;50.60
28374;DHT22;15616;40.148;-102.718;2022-11-15T03:21:23;21.10;50.70
28374;DHT22;15616;40.148;-102.718;2022-11-15T03:23:51;21.10;50.70
28374;DHT22;15616;40.148;-102.718;2022-11-15T03:26:20;21.20;50.70
28374;DHT22;15616;40.148;-102.718;2022-11-15T03:28:57;21.20;50.70
28374;DHT22;15616;40.148;-102.718;2022-11-15T03:31:28;21.20;50.70
28374;DHT22;15616;40.148;-102.718;2022-11-15T03:37:00;21.20;50.60
28374;DHT22;15616;40.148;-102.718;2022-11-15T03:39:26;21.20;50.70
28374;DHT22;15616;40.148;-102.718;2022-11-15T03:47:23;21.20;50.80
28374;DHT22;15616;40.148;-102.718;2022-11-15T03:49:53;21.20;50.70
28374;DHT22;15616;40.148;-102.718;2022-11-15T03:52:22;21.20;50.70
28374;DHT22;15616;40.148;-102.718;2022-11-15T03:54:53;21.20;50.70
28374;DHT22;15616;40.148;-102.718;2022-11-15T03:57:19;21.20;50.70
28374;DHT22;15616;40.148;-102.718;2022-11-15T03:59:45;21.20;50.70
28374;DHT22;15616;40.148;-102.718;2022-11-15T04:02:11;21.10;50.70
28374;DHT22;15616;40.148;-102.718;2022-11-15T04:04:37;21.20;50.70
28374;DHT22;15616;40.148;-102.718;2022-11-15T04:07:03;21.20;50.70
28374;DHT22;15616;40.148;-102.718;2022-11-15T04:09:29;21.20;50.70
28374;DHT22;15616;40.148;-102.718;2022-11-15T04:11:55;21.20;50.80
28374;DHT22;15616;40.148;-102.718;2022-11-15T04:14:21;21.20;50.70
28374;DHT22;15616;40.148;-102.718;2022-11-15T04:16:47;21.20;50.70
28374;DHT22;15616;40.148;-102.718;2022-11-15T04:19:13;21.20;50.80
28374;DHT22;15616;40.148;-102.718;2022-11-15T04:21:57;21.10;51.40
28374;DHT22;15616;40.148;-102.718;2022-11-15T04:24:41;21.20;50.80
28374;DHT22;15616;40.148;-102.718;2022-11-15T04:27:07;21.10;50.80
28374;DHT22;15616;40.148;-102.718;2022-11-15T04:29:33;21.20;50.80
28374;DHT22;15616;40.148;-102.718;2022-11-15T04:32:04;21.20;50.80
28374;DHT22;15616;40.148;-102.718;2022-11-15T04:34:30;21.20;50.90
28374;DHT22;15616;40.148;-102.718;2022-11-15T04:36:56;21.20;50.80
28374;DHT22;15616;40.148;-102.718;2022-11-15T04:39:38;21.20;50.80
28374;DHT22;15616;40.148;-102.718;2022-11-15T04:42:03;21.20;50.90
28374;DHT22;15616;40.148;-102.718;2022-11-15T04:44:29;21.20;50.90
28374;DHT22;15616;40.148;-102.718;2022-11-15T04:46:56;21.20;50.90
28374;DHT22;15616;40.148;-102.718;2022-11-15T04:49:21;21.20;50.90
28374;DHT22;15616;40.148;-102.718;2022-11-15T04:51:47;21.20;50.80
28374;DHT22;15616;40.148;-102.718;2022-11-15T04:54:13;21.20;50.90
28374;DHT22;15616;40.148;-102.718;2022-11-15T04:56:39;21.20;50.90
28374;DHT22;15616;40.148;-102.718;2022-11-15T04:59:05;21.20;50.90
28374;DHT22;15616;40.148;-102.718;2022-11-15T05:01:31;21.20;50.90
28374;DHT22;15616;40.148;-102.718;2022-11-15T05:03:57;21.20;50.90
28374;DHT22;15616;40.148;-102.718;2022-11-15T05:06:41;21.20;50.90
28374;DHT22;15616;40.148;-102.718;2022-11-15T05:09:07;21.10;50.90
28374;DHT22;15616;40.148;-102.718;2022-11-15T05:11:33;21.20;50.90
28374;DHT22;15616;40.148;-102.718;2022-11-15T05:13:59;21.10;50.90
28374;DHT22;15616;40.148;-102.718;2022-11-15T05:16:25;21.10;50.90
28374;DHT22;15616;40.148;-102.718;2022-11-15T05:18:52;21.10;50.90
28374;DHT22;15616;40.148;-102.718;2022-11-15T05:21:19;21.20;50.90
28374;DHT22;15616;40.148;-102.718;2022-11-15T05:23:45;21.10;50.90
28374;DHT22;15616;40.148;-102.718;2022-11-15T05:26:12;21.10;50.90
28374;DHT22;15616;40.148;-102.718;2022-11-15T05:28:38;21.20;51.00
28374;DHT22;15616;40.148;-102.718;2022-11-15T05:31:09;21.10;50.90
28374;DHT22;15616;40.148;-102.718;2022-11-15T05:33:36;21.10;50.90
28374;DHT22;15616;40.148;-102.718;2022-11-15T05:36:30;21.10;50.90
28374;DHT22;15616;40.148;-102.718;2022-11-15T05:38:56;21.20;50.90
28374;DHT22;15616;40.148;-102.718;2022-11-15T05:41:40;21.20;51.00
28374;DHT22;15616;40.148;-102.718;2022-11-15T05:44:10;21.20;51.00
28374;DHT22;15616;40.148;-102.718;2022-11-15T05:46:39;21.10;51.00
28374;DHT22;15616;40.148;-102.718;2022-11-15T05:49:08;21.10;51.00
28374;DHT22;15616;40.148;-102.718;2022-11-15T05:51:36;21.10;50.90
28374;DHT22;15616;40.148;-102.718;2022-11-15T05:54:02;21.20;51.00
28374;DHT22;15616;40.148;-102.718;2022-11-15T05:56:29;21.20;51.00
28374;DHT22;15616;40.148;-102.718;2022-11-15T05:58:56;21.10;51.10
28374;DHT22;15616;40.148;-102.718;2022-11-15T06:01:24;21.10;51.10
28374;DHT22;15616;40.148;-102.718;2022-11-15T06:03:50;21.10;51.20
28374;DHT22;15616;40.148;-102.718;2022-11-15T06:06:16;21.10;51.20
28374;DHT22;15616;40.148;-102.718;2022-11-15T06:08:42;21.10;51.20
28374;DHT22;15616;40.148;-102.718;2022-11-15T06:11:08;21.10;51.20
28374;DHT22;15616;40.148;-102.718;2022-11-15T06:13:34;21.10;51.20
28374;DHT22;15616;40.148;-102.718;2022-11-15T06:16:01;21.10;51.20
28374;DHT22;15616;40.148;-102.718;2022-11-15T06:18:27;21.10;51.20
28374;DHT22;15616;40.148;-102.718;2022-11-15T06:20:53;21.10;51.20
28374;DHT22;15616;40.148;-102.718;2022-11-15T06:23:19;21.10;51.20
28374;DHT22;15616;40.148;-102.718;2022-11-15T06:25:45;21.10;51.20
28374;DHT22;15616;40.148;-102.718;2022-11-15T06:28:10;21.10;51.20
28374;DHT22;15616;40.148;-102.718;2022-11-15T06:30:36;21.10;51.20
28374;DHT22;15616;40.148;-102.718;2022-11-15T06:33:04;21.20;51.20
28374;DHT22;15616;40.148;-102.718;2022-11-15T06:35:33;21.10;51.10
28374;DHT22;15616;40.148;-102.718;2022-11-15T06:38:09;21.10;51.10
28374;DHT22;15616;40.148;-102.718;2022-11-15T06:40:37;21.20;51.10
28374;DHT22;15616;40.148;-102.718;2022-11-15T06:43:04;21.20;51.20
28374;DHT22;15616;40.148;-102.718;2022-11-15T06:45:30;21.20;51.10
28374;DHT22;15616;40.148;-102.718;2022-11-15T06:47:57;21.20;51.10
28374;DHT22;15616;40.148;-102.718;2022-11-15T06:50:23;21.20;51.10
28374;DHT22;15616;40.148;-102.718;2022-11-15T06:52:49;21.20;51.10
28374;DHT22;15616;40.148;-102.718;2022-11-15T06:55:15;21.20;51.10
28374;DHT22;15616;40.148;-102.718;2022-11-15T06:57:51;21.20;51.00
28374;DHT22;15616;40.148;-102.718;2022-11-15T07:00:19;21.20;51.00
28374;DHT22;15616;40.148;-102.718;2022-11-15T07:02:46;21.20;51.10
28374;DHT22;15616;40.148;-102.718;2022-11-15T07:05:13;21.20;51.10
28374;DHT22;15616;40.148;-102.718;2022-11-15T07:07:40;21.20;51.10
28374;DHT22;15616;40.148;-102.718;2022-11-15T07:10:06;21.30;51.10
28374;DHT22;15616;40.148;-102.718;2022-11-15T07:12:33;21.30;51.10
28374;DHT22;15616;40.148;-102.718;2022-11-15T07:14:59;21.30;51.10
28374;DHT22;15616;40.148;-102.718;2022-11-15T07:17:25;21.30;51.10
28374;DHT22;15616;40.148;-102.718;2022-11-15T07:19:51;21.30;51.10
28374;DHT22;15616;40.148;-102.718;2022-11-15T07:22:18;21.30;51.10
28374;DHT22;15616;40.148;-102.718;2022-11-15T07:24:43;21.30;51.10
28374;DHT22;15616;40.148;-102.718;2022-11-15T07:27:09;21.30;51.10
28374;DHT22;15616;40.148;-102.718;2022-11-15T07:29:35;21.30;51.10
28374;DHT22;15616;40.148;-102.718;2022-11-15T07:32:01;21.30;51.10
28374;DHT22;15616;40.148;-102.718;2022-11-15T07:34:27;21.30;51.10
28374;DHT22;15616;40.148;-102.718;2022-11-15T07:36:53;21.30;51.10
28374;DHT22;15616;40.148;-102.718;2022-11-15T07:39:19;21.30;51.10
28374;DHT22;15616;40.148;-102.718;2022-11-15T07:41:45;21.30;51.10
28374;DHT22;15616;40.148;-102.718;2022-11-15T07:44:13;21.30;51.10
28374;DHT22;15616;40.148;-102.718;2022-11-15T07:46:39;21.30;51.10
28374;DHT22;15616;40.148;-102.718;2022-11-15T07:49:05;21.30;51.10
28374;DHT22;15616;40.148;-102.718;2022-11-15T07:51:31;21.30;51.10
28374;DHT22;15616;40.148;-102.718;2022-11-15T07:53:57;21.40;51.10
28374;DHT22;15616;40.148;-102.718;2022-11-15T07:56:23;21.40;51.10
28374;DHT22;15616;40.148;-102.718;2022-11-15T07:58:49;21.40;51.10
28374;DHT22;15616;40.148;-102.718;2022-11-15T08:01:15;21.40;51.20
28374;DHT22;15616;40.148;-102.718;2022-11-15T08:03:41;21.30;51.10
28374;DHT22;15616;40.148;-102.718;2022-11-15T08:06:07;21.30;51.10
28374;DHT22;15616;40.148;-102.718;2022-11-15T08:08:33;21.30;51.20
28374;DHT22;15616;40.148;-102.718;2022-11-15T08:10:59;21.30;51.20
28374;DHT22;15616;40.148;-102.718;2022-11-15T08:13:25;21.30;51.20
28374;DHT22;15616;40.148;-102.718;2022-11-15T08:15:52;21.30;51.20
28374;DHT22;15616;40.148;-102.718;2022-11-15T08:18:17;21.40;51.20
28374;DHT22;15616;40.148;-102.718;2022-11-15T08:20:43;21.40;51.20
28374;DHT22;15616;40.148;-102.718;2022-11-15T08:23:11;21.40;51.10
28374;DHT22;15616;40.148;-102.718;2022-11-15T08:25:38;21.40;51.70
28374;DHT22;15616;40.148;-102.718;2022-11-15T08:28:06;21.40;51.10
28374;DHT22;15616;40.148;-102.718;2022-11-15T08:30:38;21.40;51.20
28374;DHT22;15616;40.148;-102.718;2022-11-15T08:33:10;21.40;51.20
28374;DHT22;15616;40.148;-102.718;2022-11-15T08:35:36;21.40;51.20
28374;DHT22;15616;40.148;-102.718;2022-11-15T08:38:03;21.40;51.20
28374;DHT22;15616;40.148;-102.718;2022-11-15T08:40:29;21.40;51.80
28374;DHT22;15616;40.148;-102.718;2022-11-15T08:42:54;21.40;51.10
28374;DHT22;15616;40.148;-102.718;2022-11-15T08:45:20;21.40;51.00
28374;DHT22;15616;40.148;-102.718;2022-11-15T08:47:46;21.40;51.10
28374;DHT22;15616;40.148;-102.718;2022-11-15T08:50:12;21.40;51.00
28374;DHT22;15616;40.148;-102.718;2022-11-15T08:52:38;21.40;51.00
28374;DHT22;15616;40.148;-102.718;2022-11-15T08:55:04;21.40;51.00
28374;DHT22;15616;40.148;-102.718;2022-11-15T08:57:31;21.40;51.00
28374;DHT22;15616;40.148;-102.718;2022-11-15T08:59:57;21.40;51.00
28374;DHT22;15616;40.148;-102.718;2022-11-15T09:02:23;21.40;51.00
28374;DHT22;15616;40.148;-102.718;2022-11-15T09:04:49;21.50;51.00
28374;DHT22;15616;40.148;-102.718;2022-11-15T09:07:15;21.50;51.00
28374;DHT22;15616;40.148;-102.718;2022-11-15T09:09:41;21.40;51.00
28374;DHT22;15616;40.148;-102.718;2022-11-15T09:12:07;21.40;51.00
28374;DHT22;15616;40.148;-102.718;2022-11-15T09:14:33;21.50;51.80
28374;DHT22;15616;40.148;-102.718;2022-11-15T09:17:00;21.40;51.10
28374;DHT22;15616;40.148;-102.718;2022-11-15T09:19:26;21.40;51.20
28374;DHT22;15616;40.148;-102.718;2022-11-15T09:21:52;21.40;51.20
28374;DHT22;15616;40.148;-102.718;2022-11-15T09:24:18;21.40;51.20
28374;DHT22;15616;40.148;-102.718;2022-11-15T09:26:44;21.40;51.20
28374;DHT22;15616;40.148;-102.718;2022-11-15T09:29:10;21.40;51.20
28374;DHT22;15616;40.148;-102.718;2022-11-15T09:31:36;21.40;51.20
28374;DHT22;15616;40.148;-102.718;2022-11-15T09:34:02;21.40;51.20
28374;DHT22;15616;40.148;-102.718;2022-11-15T09:36:28;21.40;51.20
28374;DHT22;15616;40.148;-102.718;2022-11-15T09:38:54;21.40;51.30
28374;DHT22;15616;40.148;-102.718;2022-11-15T09:41:43;21.40;51.30
28374;DHT22;15616;40.148;-102.718;2022-11-15T09:45:23;21.40;51.20
28374;DHT22;15616;40.148;-102.718;2022-11-15T09:50:43;21.40;51.30
28374;DHT22;15616;40.148;-102.718;2022-11-15T09:53:15;21.40;51.30
28374;DHT22;15616;40.148;-102.718;2022-11-15T09:56:02;21.40;51.30
28374;DHT22;15616;40.148;-102.718;2022-11-15T10:01:45;21.40;51.20
28374;DHT22;15616;40.148;-102.718;2022-11-15T10:04:13;21.50;51.20
28374;DHT22;15616;40.148;-102.718;2022-11-15T10:06:44;21.40;51.20
28374;DHT22;15616;40.148;-102.718;2022-11-15T10:09:30;21.50;51.10
28374;DHT22;15616;40.148;-102.718;2022-11-15T10:11:57;21.50;51.10
28374;DHT22;15616;40.148;-102.718;2022-11-15T10:14:25;21.50;51.10
28374;DHT22;15616;40.148;-102.718;2022-11-15T10:22:43;21.50;51.20
28374;DHT22;15616;40.148;-102.718;2022-11-15T10:25:17;21.50;51.10
28374;DHT22;15616;40.148;-102.718;2022-11-15T10:30:37;21.50;51.00
28374;DHT22;15616;40.148;-102.718;2022-11-15T10:33:20;21.50;51.00
28374;DHT22;15616;40.148;-102.718;2022-11-15T10:35:48;21.50;50.90
28374;DHT22;15616;40.148;-102.718;2022-11-15T10:38:13;21.50;50.90
28374;DHT22;15616;40.148;-102.718;2022-11-15T10:40:40;21.50;51.00
28374;DHT22;15616;40.148;-102.718;2022-11-15T10:43:17;21.60;50.90
28374;DHT22;15616;40.148;-102.718;2022-11-15T10:45:44;21.50;50.90
28374;DHT22;15616;40.148;-102.718;2022-11-15T10:50:46;21.60;51.00
28374;DHT22;15616;40.148;-102.718;2022-11-15T10:53:23;21.60;50.90
28374;DHT22;15616;40.148;-102.718;2022-11-15T10:55:53;21.50;50.80
28374;DHT22;15616;40.148;-102.718;2022-11-15T11:00:48;21.60;50.80
28374;DHT22;15616;40.148;-102.718;2022-11-15T11:03:37;21.50;50.80
28374;DHT22;15616;40.148;-102.718;2022-11-15T11:06:17;21.60;50.80
28374;DHT22;15616;40.148;-102.718;2022-11-15T11:09:01;21.60;50.90
28374;DHT22;15616;40.148;-102.718;2022-11-15T11:16:50;21.60;50.90
28374;DHT22;15616;40.148;-102.718;2022-11-15T11:19:31;21.60;50.90
28374;DHT22;15616;40.148;-102.718;2022-11-15T11:24:44;21.60;50.80
28374;DHT22;15616;40.148;-102.718;2022-11-15T11:27:36;21.60;50.80
28374;DHT22;15616;40.148;-102.718;2022-11-15T11:30:14;21.60;50.80
28374;DHT22;15616;40.148;-102.718;2022-11-15T11:33:09;21.60;50.70
28374;DHT22;15616;40.148;-102.718;2022-11-15T11:49:08;21.70;50.60
28374;DHT22;15616;40.148;-102.718;2022-11-15T11:54:29;21.70;50.50
28374;DHT22;15616;40.148;-102.718;2022-11-15T11:57:00;21.70;50.50
28374;DHT22;15616;40.148;-102.718;2022-11-15T11:59:46;21.80;50.50
28374;DHT22;15616;40.148;-102.718;2022-11-15T12:02:25;21.70;50.40
28374;DHT22;15616;40.148;-102.718;2022-11-15T12:05:11;21.70;50.30
28374;DHT22;15616;40.148;-102.718;2022-11-15T12:07:40;21.80;50.40
28374;DHT22;15616;40.148;-102.718;2022-11-15T12:12:41;21.70;50.40
28374;DHT22;15616;40.148;-102.718;2022-11-15T12:15:15;21.70;50.30
28374;DHT22;15616;40.148;-102.718;2022-11-15T12:17:42;21.70;50.40
28374;DHT22;15616;40.148;-102.718;2022-11-15T12:20:16;21.80;50.40
28374;DHT22;15616;40.148;-102.718;2022-11-15T12:22:52;21.70;50.30
28374;DHT22;15616;40.148;-102.718;2022-11-15T12:25:25;21.70;50.30
28374;DHT22;15616;40.148;-102.718;2022-11-15T12:28:19;21.70;50.40
28374;DHT22;15616;40.148;-102.718;2022-11-15T12:30:52;21.80;50.50
28374;DHT22;15616;40.148;-102.718;2022-11-15T12:33:33;21.70;50.40
28374;DHT22;15616;40.148;-102.718;2022-11-15T12:36:03;21.70;50.40
28374;DHT22;15616;40.148;-102.718;2022-11-15T12:41:34;21.80;50.40
28374;DHT22;15616;40.148;-102.718;2022-11-15T12:44:00;21.80;50.40
28374;DHT22;15616;40.148;-102.718;2022-11-15T13:00:36;21.80;50.30
28374;DHT22;15616;40.148;-102.718;2022-11-15T13:03:22;21.80;50.10
28374;DHT22;15616;40.148;-102.718;2022-11-15T13:05:56;21.80;50.20
28374;DHT22;15616;40.148;-102.718;2022-11-15T13:08:43;21.80;50.20
28374;DHT22;15616;40.148;-102.718;2022-11-15T13:11:48;21.80;50.20
28374;DHT22;15616;40.148;-102.718;2022-11-15T13:17:34;21.90;50.10
28374;DHT22;15616;40.148;-102.718;2022-11-15T13:22:49;21.90;50.20
28374;DHT22;15616;40.148;-102.718;2022-11-15T13:30:30;21.90;50.10
28374;DHT22;15616;40.148;-102.718;2022-11-15T13:33:00;21.90;50.10
28374;DHT22;15616;40.148;-102.718;2022-11-15T13:35:29;21.90;50.00
28374;DHT22;15616;40.148;-102.718;2022-11-15T13:38:04;21.90;50.00
28374;DHT22;15616;40.148;-102.718;2022-11-15T13:40:36;21.90;50.00
28374;DHT22;15616;40.148;-102.718;2022-11-15T13:43:36;21.90;49.90
28374;DHT22;15616;40.148;-102.718;2022-11-15T13:49:10;21.90;49.90
28374;DHT22;15616;40.148;-102.718;2022-11-15T13:51:46;21.90;49.90
28374;DHT22;15616;40.148;-102.718;2022-11-15T13:56:44;21.80;49.80
28374;DHT22;15616;40.148;-102.718;2022-11-15T13:59:24;21.90;49.90
28374;DHT22;15616;40.148;-102.718;2022-11-15T14:01:52;21.90;49.90
28374;DHT22;15616;40.148;-102.718;2022-11-15T14:04:23;21.90;49.80
28374;DHT22;15616;40.148;-102.718;2022-11-15T14:06:53;21.90;49.80
28374;DHT22;15616;40.148;-102.718;2022-11-15T14:09:38;21.90;49.80
28374;DHT22;15616;40.148;-102.718;2022-11-15T14:12:26;21.90;49.80
28374;DHT22;15616;40.148;-102.718;2022-11-15T14:14:52;21.90;49.70
28374;DHT22;15616;40.148;-102.718;2022-11-15T14:17:34;21.90;49.80
28374;DHT22;15616;40.148;-102.718;2022-11-15T14:20:01;21.90;49.80
28374;DHT22;15616;40.148;-102.718;2022-11-15T14:22:30;21.90;49.80
28374;DHT22;15616;40.148;-102.718;2022-11-15T14:25:15;21.90;49.80
28374;DHT22;15616;40.148;-102.718;2022-11-15T14:27:43;21.90;49.70
28374;DHT22;15616;40.148;-102.718;2022-11-15T14:30:16;21.90;49.80
28374;DHT22;15616;40.148;-102.718;2022-11-15T14:32:44;21.90;49.80
28374;DHT22;15616;40.148;-102.718;2022-11-15T14:35:21;21.90;49.80
28374;DHT22;15616;40.148;-102.718;2022-11-15T14:37:48;21.90;49.90
28374;DHT22;15616;40.148;-102.718;2022-11-15T14:40:18;21.90;49.90
28374;DHT22;15616;40.148;-102.718;2022-11-15T14:42:46;21.90;49.90
28374;DHT22;15616;40.148;-102.718;2022-11-15T14:45:21;21.90;49.90
28374;DHT22;15616;40.148;-102.718;2022-11-15T14:47:48;21.90;49.90
28374;DHT22;15616;40.148;-102.718;2022-11-15T14:50:20;21.90;49.90
28374;DHT22;15616;40.148;-102.718;2022-11-15T14:52:47;21.90;49.80
28374;DHT22;15616;40.148;-102.718;2022-11-15T14:57:43;21.90;49.90
28374;DHT22;15616;40.148;-102.718;2022-11-15T15:00:09;21.90;49.90
28374;DHT22;15616;40.148;-102.718;2022-11-15T15:02:35;21.90;49.90
28374;DHT22;15616;40.148;-102.718;2022-11-15T15:05:07;21.90;49.90
28374;DHT22;15616;40.148;-102.718;2022-11-15T15:07:36;21.90;49.90
28374;DHT22;15616;40.148;-102.718;2022-11-15T15:10:02;21.90;49.90
28374;DHT22;15616;40.148;-102.718;2022-11-15T15:12:28;21.90;49.90
28374;DHT22;15616;40.148;-102.718;2022-11-15T15:14:54;21.90;49.90
28374;DHT22;15616;40.148;-102.718;2022-11-15T15:17:20;21.90;49.90
28374;DHT22;15616;40.148;-102.718;2022-11-15T15:19:46;21.90;49.90
28374;DHT22;15616;40.148;-102.718;2022-11-15T15:22:15;21.90;49.90
28374;DHT22;15616;40.148;-102.718;2022-11-15T15:24:42;21.90;49.80
28374;DHT22;15616;40.148;-102.718;2022-11-15T15:27:09;21.90;49.80
28374;DHT22;15616;40.148;-102.718;2022-11-15T15:29:34;21.90;49.80
28374;DHT22;15616;40.148;-102.718;2022-11-15T15:32:00;21.90;49.80
28374;DHT22;15616;40.148;-102.718;2022-11-15T15:34:26;21.90;49.80
28374;DHT22;15616;40.148;-102.718;2022-11-15T15:37:19;21.90;49.80
28374;DHT22;15616;40.148;-102.718;2022-11-15T15:39:53;21.90;49.80
28374;DHT22;15616;40.148;-102.718;2022-11-15T15:42:20;21.90;49.90
28374;DHT22;15616;40.148;-102.718;2022-11-15T15:44:47;21.90;49.90
28374;DHT22;15616;40.148;-102.718;2022-11-15T15:47:19;21.90;49.90
28374;DHT22;15616;40.148;-102.718;2022-11-15T15:49:46;21.90;49.90
28374;DHT22;15616;40.148;-102.718;2022-11-15T15:52:12;21.90;49.90
28374;DHT22;15616;40.148;-102.718;2022-11-15T15:54:38;21.90;49.90
28374;DHT22;15616;40.148;-102.718;2022-11-15T15:57:05;21.90;49.90
28374;DHT22;15616;40.148;-102.718;2022-11-15T15:59:32;21.90;49.90
28374;DHT22;15616;40.148;-102.718;2022-11-15T16:01:58;21.90;49.90
28374;DHT22;15616;40.148;-102.718;2022-11-15T16:04:24;21.90;49.90
28374;DHT22;15616;40.148;-102.718;2022-11-15T16:06:50;21.90;49.90
28374;DHT22;15616;40.148;-102.718;2022-11-15T16:09:19;21.90;49.90
28374;DHT22;15616;40.148;-102.718;2022-11-15T16:12:08;21.90;49.90
28374;DHT22;15616;40.148;-102.718;2022-11-15T16:14:34;21.90;49.90
28374;DHT22;15616;40.148;-102.718;2022-11-15T16:16:59;21.90;49.80
28374;DHT22;15616;40.148;-102.718;2022-11-15T16:19:25;21.90;49.80
28374;DHT22;15616;40.148;-102.718;2022-11-15T16:21:51;21.90;49.80
28374;DHT22;15616;40.148;-102.718;2022-11-15T16:24:18;21.90;49.70
28374;DHT22;15616;40.148;-102.718;2022-11-15T16:26:45;21.90;49.70
28374;DHT22;15616;40.148;-102.718;2022-11-15T16:43:25;21.90;49.90
28374;DHT22;15616;40.148;-102.718;2022-11-15T16:45:51;21.90;50.00
28374;DHT22;15616;40.148;-102.718;2022-11-15T16:48:25;21.90;50.00
28374;DHT22;15616;40.148;-102.718;2022-11-15T16:50:55;21.90;50.00
28374;DHT22;15616;40.148;-102.718;2022-11-15T16:53:22;22.00;49.90
28374;DHT22;15616;40.148;-102.718;2022-11-15T16:55:48;21.90;49.80
28374;DHT22;15616;40.148;-102.718;2022-11-15T16:58:14;21.90;49.80
28374;DHT22;15616;40.148;-102.718;2022-11-15T17:00:40;21.90;49.80
28374;DHT22;15616;40.148;-102.718;2022-11-15T17:03:06;21.90;49.80
28374;DHT22;15616;40.148;-102.718;2022-11-15T17:05:32;21.90;49.80
28374;DHT22;15616;40.148;-102.718;2022-11-15T17:07:58;21.90;49.90
28374;DHT22;15616;40.148;-102.718;2022-11-15T17:10:25;21.80;49.90